sensor_id;sensor_type;location;lat;lon;timestamp;P1;durP1;ratioP1;P2;durP2;ratioP2
30048;SDS011;16879;50.852;15.602;2023-03-14T00:00:01;14.45;;;7.13;;
30048;SDS011;16879;50.852;15.602;2023-03-14T00:02:30;11.73;;;6.32;;
30048;SDS011;16879;50.852;15.602;2023-03-14T00:04:57;11.43;;;6.20;;
30048;SDS011;16879;50.852;15.602;2023-03-14T00:07:23;9.68;;;4.72;;
30048;SDS011;16879;50.852;15.602;2023-03-14T00:09:50;9.70;;;4.97;;
30048;SDS011;16879;50.852;15.602;2023-03-14T00:12:16;13.77;;;6.50;;
30048;SDS011;16879;50.852;15.602;2023-03-14T00:14:42;13.23;;;6.63;;
30048;SDS011;16879;50.852;15.602;2023-03-14T00:17:08;11.55;;;5.68;;
30048;SDS011;16879;50.852;15.602;2023-03-14T00:19:35;6.10;;;4.47;;
30048;SDS011;16879;50.852;15.602;2023-03-14T00:22:01;8.70;;;4.22;;
30048;SDS011;16879;50.852;15.602;2023-03-14T00:24:27;7.88;;;3.92;;
30048;SDS011;16879;50.852;15.602;2023-03-14T00:26:53;5.35;;;4.20;;
30048;SDS011;16879;50.852;15.602;2023-03-14T00:29:22;5.63;;;3.78;;
30048;SDS011;16879;50.852;15.602;2023-03-14T00:31:47;6.00;;;3.88;;
30048;SDS011;16879;50.852;15.602;2023-03-14T00:34:13;5.88;;;4.97;;
30048;SDS011;16879;50.852;15.602;2023-03-14T00:36:39;11.23;;;10.00;;
30048;SDS011;16879;50.852;15.602;2023-03-14T00:39:05;11.60;;;9.55;;
30048;SDS011;16879;50.852;15.602;2023-03-14T00:41:31;14.55;;;10.23;;
30048;SDS011;16879;50.852;15.602;2023-03-14T00:43:56;25.20;;;13.57;;
30048;SDS011;16879;50.852;15.602;2023-03-14T00:46:23;22.30;;;12.45;;
30048;SDS011;16879;50.852;15.602;2023-03-14T00:48:49;23.38;;;11.20;;
30048;SDS011;16879;50.852;15.602;2023-03-14T00:51:15;16.00;;;9.20;;
30048;SDS011;16879;50.852;15.602;2023-03-14T00:53:41;15.40;;;9.15;;
30048;SDS011;16879;50.852;15.602;2023-03-14T00:56:09;17.48;;;9.68;;
30048;SDS011;16879;50.852;15.602;2023-03-14T00:58:35;18.50;;;9.40;;
30048;SDS011;16879;50.852;15.602;2023-03-14T01:01:09;16.77;;;9.13;;
30048;SDS011;16879;50.852;15.602;2023-03-14T01:03:43;17.52;;;9.80;;
30048;SDS011;16879;50.852;15.602;2023-03-14T01:06:10;22.25;;;10.95;;
30048;SDS011;16879;50.852;15.602;2023-03-14T01:08:37;14.85;;;8.98;;
30048;SDS011;16879;50.852;15.602;2023-03-14T01:11:10;14.52;;;7.85;;
30048;SDS011;16879;50.852;15.602;2023-03-14T01:13:37;15.50;;;8.73;;
30048;SDS011;16879;50.852;15.602;2023-03-14T01:16:04;14.25;;;7.57;;
30048;SDS011;16879;50.852;15.602;2023-03-14T01:18:32;10.93;;;7.03;;
30048;SDS011;16879;50.852;15.602;2023-03-14T01:21:00;12.98;;;7.20;;
30048;SDS011;16879;50.852;15.602;2023-03-14T01:23:26;13.23;;;6.93;;
30048;SDS011;16879;50.852;15.602;2023-03-14T01:25:52;7.60;;;5.68;;
30048;SDS011;16879;50.852;15.602;2023-03-14T01:28:19;10.35;;;6.15;;
30048;SDS011;16879;50.852;15.602;2023-03-14T01:30:45;6.78;;;4.88;;
30048;SDS011;16879;50.852;15.602;2023-03-14T01:33:11;8.07;;;5.18;;
30048;SDS011;16879;50.852;15.602;2023-03-14T01:35:39;9.82;;;5.43;;
30048;SDS011;16879;50.852;15.602;2023-03-14T01:38:05;7.60;;;5.22;;
30048;SDS011;16879;50.852;15.602;2023-03-14T01:40:31;10.70;;;4.03;;
30048;SDS011;16879;50.852;15.602;2023-03-14T01:42:57;5.07;;;4.05;;
30048;SDS011;16879;50.852;15.602;2023-03-14T01:47:56;10.65;;;5.90;;
30048;SDS011;16879;50.852;15.602;2023-03-14T01:50:22;5.63;;;4.40;;
30048;SDS011;16879;50.852;15.602;2023-03-14T01:52:48;9.23;;;5.70;;
30048;SDS011;16879;50.852;15.602;2023-03-14T01:55:24;10.95;;;6.50;;
30048;SDS011;16879;50.852;15.602;2023-03-14T01:57:51;12.93;;;6.15;;
30048;SDS011;16879;50.852;15.602;2023-03-14T02:00:22;7.38;;;4.78;;
30048;SDS011;16879;50.852;15.602;2023-03-14T02:02:53;6.70;;;4.10;;
30048;SDS011;16879;50.852;15.602;2023-03-14T02:05:25;10.05;;;6.18;;
30048;SDS011;16879;50.852;15.602;2023-03-14T02:07:52;9.10;;;6.78;;
30048;SDS011;16879;50.852;15.602;2023-03-14T02:10:21;8.88;;;5.70;;
30048;SDS011;16879;50.852;15.602;2023-03-14T02:12:53;7.93;;;4.93;;
30048;SDS011;16879;50.852;15.602;2023-03-14T02:15:22;6.53;;;4.28;;
30048;SDS011;16879;50.852;15.602;2023-03-14T02:17:48;5.15;;;4.32;;
30048;SDS011;16879;50.852;15.602;2023-03-14T02:23:05;7.22;;;4.00;;
30048;SDS011;16879;50.852;15.602;2023-03-14T02:25:38;5.78;;;3.83;;
30048;SDS011;16879;50.852;15.602;2023-03-14T02:28:09;8.93;;;5.30;;
30048;SDS011;16879;50.852;15.602;2023-03-14T02:30:36;9.60;;;6.60;;
30048;SDS011;16879;50.852;15.602;2023-03-14T02:33:07;11.25;;;4.90;;
30048;SDS011;16879;50.852;15.602;2023-03-14T02:35:37;5.20;;;3.27;;
30048;SDS011;16879;50.852;15.602;2023-03-14T02:38:08;5.45;;;3.20;;
30048;SDS011;16879;50.852;15.602;2023-03-14T02:40:39;3.22;;;2.47;;
30048;SDS011;16879;50.852;15.602;2023-03-14T02:43:05;5.00;;;3.30;;
30048;SDS011;16879;50.852;15.602;2023-03-14T02:45:38;3.17;;;2.30;;
30048;SDS011;16879;50.852;15.602;2023-03-14T02:50:31;6.10;;;3.25;;
30048;SDS011;16879;50.852;15.602;2023-03-14T02:52:59;5.78;;;3.85;;
30048;SDS011;16879;50.852;15.602;2023-03-14T02:55:25;7.53;;;5.63;;
30048;SDS011;16879;50.852;15.602;2023-03-14T02:57:52;9.68;;;6.82;;
30048;SDS011;16879;50.852;15.602;2023-03-14T03:00:19;5.18;;;3.83;;
30048;SDS011;16879;50.852;15.602;2023-03-14T03:02:45;7.70;;;4.88;;
30048;SDS011;16879;50.852;15.602;2023-03-14T03:05:12;10.30;;;5.80;;
30048;SDS011;16879;50.852;15.602;2023-03-14T03:07:37;7.45;;;3.90;;
30048;SDS011;16879;50.852;15.602;2023-03-14T03:10:04;3.58;;;2.75;;
30048;SDS011;16879;50.852;15.602;2023-03-14T03:12:30;5.72;;;3.13;;
30048;SDS011;16879;50.852;15.602;2023-03-14T03:14:56;5.05;;;3.72;;
30048;SDS011;16879;50.852;15.602;2023-03-14T03:17:22;7.32;;;2.92;;
30048;SDS011;16879;50.852;15.602;2023-03-14T03:19:48;4.20;;;2.50;;
30048;SDS011;16879;50.852;15.602;2023-03-14T03:22:14;3.88;;;3.35;;
30048;SDS011;16879;50.852;15.602;2023-03-14T03:24:40;4.38;;;3.53;;
30048;SDS011;16879;50.852;15.602;2023-03-14T03:27:06;3.55;;;3.25;;
30048;SDS011;16879;50.852;15.602;2023-03-14T03:29:31;4.20;;;2.80;;
30048;SDS011;16879;50.852;15.602;2023-03-14T03:31:57;4.55;;;2.78;;
30048;SDS011;16879;50.852;15.602;2023-03-14T03:34:23;2.80;;;2.30;;
30048;SDS011;16879;50.852;15.602;2023-03-14T03:36:49;2.20;;;1.83;;
30048;SDS011;16879;50.852;15.602;2023-03-14T03:39:15;5.65;;;2.55;;
30048;SDS011;16879;50.852;15.602;2023-03-14T03:41:41;3.75;;;2.55;;
30048;SDS011;16879;50.852;15.602;2023-03-14T03:44:07;6.15;;;2.78;;
30048;SDS011;16879;50.852;15.602;2023-03-14T03:46:33;5.35;;;3.10;;
30048;SDS011;16879;50.852;15.602;2023-03-14T03:48:59;3.15;;;2.85;;
30048;SDS011;16879;50.852;15.602;2023-03-14T03:51:25;3.80;;;2.95;;
30048;SDS011;16879;50.852;15.602;2023-03-14T03:53:52;6.30;;;3.40;;
30048;SDS011;16879;50.852;15.602;2023-03-14T03:56:18;3.83;;;3.25;;
30048;SDS011;16879;50.852;15.602;2023-03-14T03:58:43;2.58;;;2.03;;
30048;SDS011;16879;50.852;15.602;2023-03-14T04:01:10;2.70;;;2.30;;
30048;SDS011;16879;50.852;15.602;2023-03-14T04:03:36;3.47;;;2.65;;
30048;SDS011;16879;50.852;15.602;2023-03-14T04:06:08;6.40;;;3.90;;
30048;SDS011;16879;50.852;15.602;2023-03-14T04:08:34;6.68;;;3.10;;
30048;SDS011;16879;50.852;15.602;2023-03-14T04:11:01;5.13;;;3.63;;
30048;SDS011;16879;50.852;15.602;2023-03-14T04:13:28;4.53;;;2.55;;
30048;SDS011;16879;50.852;15.602;2023-03-14T04:15:54;3.22;;;1.92;;
30048;SDS011;16879;50.852;15.602;2023-03-14T04:18:21;5.38;;;2.50;;
30048;SDS011;16879;50.852;15.602;2023-03-14T04:20:55;6.03;;;3.55;;
30048;SDS011;16879;50.852;15.602;2023-03-14T04:23:22;5.80;;;4.15;;
30048;SDS011;16879;50.852;15.602;2023-03-14T04:25:52;8.57;;;5.88;;
30048;SDS011;16879;50.852;15.602;2023-03-14T04:28:18;11.57;;;7.72;;
30048;SDS011;16879;50.852;15.602;2023-03-14T04:30:44;8.30;;;7.20;;
30048;SDS011;16879;50.852;15.602;2023-03-14T04:33:11;12.45;;;6.93;;
30048;SDS011;16879;50.852;15.602;2023-03-14T04:35:40;17.05;;;8.43;;
30048;SDS011;16879;50.852;15.602;2023-03-14T04:38:07;18.95;;;12.35;;
30048;SDS011;16879;50.852;15.602;2023-03-14T04:40:33;17.83;;;11.30;;
30048;SDS011;16879;50.852;15.602;2023-03-14T04:43:01;11.48;;;8.43;;
30048;SDS011;16879;50.852;15.602;2023-03-14T04:45:27;7.43;;;5.10;;
30048;SDS011;16879;50.852;15.602;2023-03-14T04:47:53;7.22;;;4.68;;
30048;SDS011;16879;50.852;15.602;2023-03-14T04:50:19;11.35;;;6.95;;
30048;SDS011;16879;50.852;15.602;2023-03-14T04:52:45;10.80;;;7.32;;
30048;SDS011;16879;50.852;15.602;2023-03-14T04:55:11;3.78;;;2.92;;
30048;SDS011;16879;50.852;15.602;2023-03-14T04:57:37;7.43;;;4.70;;
30048;SDS011;16879;50.852;15.602;2023-03-14T05:00:03;8.27;;;4.80;;
30048;SDS011;16879;50.852;15.602;2023-03-14T05:02:33;9.05;;;4.38;;
30048;SDS011;16879;50.852;15.602;2023-03-14T05:04:59;7.30;;;4.35;;
30048;SDS011;16879;50.852;15.602;2023-03-14T05:07:25;9.05;;;6.38;;
30048;SDS011;16879;50.852;15.602;2023-03-14T05:09:52;12.75;;;7.80;;
30048;SDS011;16879;50.852;15.602;2023-03-14T05:12:20;7.10;;;5.55;;
30048;SDS011;16879;50.852;15.602;2023-03-14T05:14:47;8.57;;;5.00;;
30048;SDS011;16879;50.852;15.602;2023-03-14T05:17:14;8.02;;;4.63;;
30048;SDS011;16879;50.852;15.602;2023-03-14T05:19:41;11.32;;;6.80;;
30048;SDS011;16879;50.852;15.602;2023-03-14T05:22:08;6.68;;;4.35;;
30048;SDS011;16879;50.852;15.602;2023-03-14T05:24:34;7.07;;;4.53;;
30048;SDS011;16879;50.852;15.602;2023-03-14T05:27:00;9.10;;;4.85;;
30048;SDS011;16879;50.852;15.602;2023-03-14T05:29:26;6.43;;;3.90;;
30048;SDS011;16879;50.852;15.602;2023-03-14T05:31:52;7.20;;;4.25;;
30048;SDS011;16879;50.852;15.602;2023-03-14T05:34:18;6.15;;;4.50;;
30048;SDS011;16879;50.852;15.602;2023-03-14T05:36:45;7.53;;;5.53;;
30048;SDS011;16879;50.852;15.602;2023-03-14T05:39:11;5.07;;;4.03;;
30048;SDS011;16879;50.852;15.602;2023-03-14T05:41:37;6.75;;;4.30;;
30048;SDS011;16879;50.852;15.602;2023-03-14T05:44:03;4.28;;;3.50;;
30048;SDS011;16879;50.852;15.602;2023-03-14T05:46:29;4.90;;;3.63;;
30048;SDS011;16879;50.852;15.602;2023-03-14T05:48:56;7.95;;;4.35;;
30048;SDS011;16879;50.852;15.602;2023-03-14T05:51:22;5.93;;;4.15;;
30048;SDS011;16879;50.852;15.602;2023-03-14T05:53:49;14.00;;;8.38;;
30048;SDS011;16879;50.852;15.602;2023-03-14T05:56:15;10.20;;;7.05;;
30048;SDS011;16879;50.852;15.602;2023-03-14T05:58:42;16.50;;;8.80;;
30048;SDS011;16879;50.852;15.602;2023-03-14T06:01:08;12.38;;;8.18;;
30048;SDS011;16879;50.852;15.602;2023-03-14T06:03:35;10.75;;;7.35;;
30048;SDS011;16879;50.852;15.602;2023-03-14T06:06:01;9.73;;;7.68;;
30048;SDS011;16879;50.852;15.602;2023-03-14T06:08:28;12.73;;;7.97;;
30048;SDS011;16879;50.852;15.602;2023-03-14T06:10:54;23.98;;;16.40;;
30048;SDS011;16879;50.852;15.602;2023-03-14T06:13:20;19.00;;;12.23;;
30048;SDS011;16879;50.852;15.602;2023-03-14T06:15:46;13.50;;;9.23;;
30048;SDS011;16879;50.852;15.602;2023-03-14T06:18:13;17.23;;;11.00;;
30048;SDS011;16879;50.852;15.602;2023-03-14T06:20:39;16.20;;;9.88;;
30048;SDS011;16879;50.852;15.602;2023-03-14T06:23:06;11.15;;;6.85;;
30048;SDS011;16879;50.852;15.602;2023-03-14T06:25:32;7.88;;;5.25;;
30048;SDS011;16879;50.852;15.602;2023-03-14T06:27:59;8.00;;;5.88;;
30048;SDS011;16879;50.852;15.602;2023-03-14T06:30:25;8.15;;;5.78;;
30048;SDS011;16879;50.852;15.602;2023-03-14T06:32:51;8.90;;;6.20;;
30048;SDS011;16879;50.852;15.602;2023-03-14T06:35:17;8.00;;;5.38;;
30048;SDS011;16879;50.852;15.602;2023-03-14T06:37:43;9.80;;;4.38;;
30048;SDS011;16879;50.852;15.602;2023-03-14T06:40:09;7.00;;;4.60;;
30048;SDS011;16879;50.852;15.602;2023-03-14T06:42:37;10.23;;;6.57;;
30048;SDS011;16879;50.852;15.602;2023-03-14T06:45:03;6.68;;;4.20;;
30048;SDS011;16879;50.852;15.602;2023-03-14T06:47:30;6.50;;;5.45;;
30048;SDS011;16879;50.852;15.602;2023-03-14T06:49:56;8.50;;;6.75;;
30048;SDS011;16879;50.852;15.602;2023-03-14T06:52:22;9.25;;;6.25;;
30048;SDS011;16879;50.852;15.602;2023-03-14T06:54:48;4.60;;;4.15;;
30048;SDS011;16879;50.852;15.602;2023-03-14T06:57:14;6.35;;;4.70;;
30048;SDS011;16879;50.852;15.602;2023-03-14T06:59:40;5.40;;;4.85;;
30048;SDS011;16879;50.852;15.602;2023-03-14T07:02:07;6.68;;;4.10;;
30048;SDS011;16879;50.852;15.602;2023-03-14T07:04:36;6.85;;;4.80;;
30048;SDS011;16879;50.852;15.602;2023-03-14T07:07:02;6.40;;;5.53;;
30048;SDS011;16879;50.852;15.602;2023-03-14T07:09:29;9.68;;;7.07;;
30048;SDS011;16879;50.852;15.602;2023-03-14T07:11:55;5.80;;;4.22;;
30048;SDS011;16879;50.852;15.602;2023-03-14T07:14:21;8.25;;;5.93;;
30048;SDS011;16879;50.852;15.602;2023-03-14T07:16:47;11.25;;;5.07;;
30048;SDS011;16879;50.852;15.602;2023-03-14T07:19:13;6.45;;;5.07;;
30048;SDS011;16879;50.852;15.602;2023-03-14T07:21:39;10.40;;;6.32;;
30048;SDS011;16879;50.852;15.602;2023-03-14T07:24:05;13.35;;;7.70;;
30048;SDS011;16879;50.852;15.602;2023-03-14T07:26:31;6.15;;;4.32;;
30048;SDS011;16879;50.852;15.602;2023-03-14T07:28:57;4.80;;;4.20;;
30048;SDS011;16879;50.852;15.602;2023-03-14T07:31:23;8.15;;;5.50;;
30048;SDS011;16879;50.852;15.602;2023-03-14T07:33:49;4.53;;;3.20;;
30048;SDS011;16879;50.852;15.602;2023-03-14T07:36:15;3.10;;;2.67;;
30048;SDS011;16879;50.852;15.602;2023-03-14T07:38:42;4.88;;;3.42;;
30048;SDS011;16879;50.852;15.602;2023-03-14T07:41:08;8.80;;;5.82;;
30048;SDS011;16879;50.852;15.602;2023-03-14T07:43:34;5.70;;;4.13;;
30048;SDS011;16879;50.852;15.602;2023-03-14T07:46:00;4.80;;;3.40;;
30048;SDS011;16879;50.852;15.602;2023-03-14T07:48:26;3.97;;;2.60;;
30048;SDS011;16879;50.852;15.602;2023-03-14T07:50:53;4.53;;;2.35;;
30048;SDS011;16879;50.852;15.602;2023-03-14T07:53:19;2.75;;;2.20;;
30048;SDS011;16879;50.852;15.602;2023-03-14T07:55:46;2.97;;;2.70;;
30048;SDS011;16879;50.852;15.602;2023-03-14T07:58:13;8.68;;;2.42;;
30048;SDS011;16879;50.852;15.602;2023-03-14T08:00:39;2.70;;;2.50;;
30048;SDS011;16879;50.852;15.602;2023-03-14T08:03:05;2.97;;;2.30;;
30048;SDS011;16879;50.852;15.602;2023-03-14T08:05:33;2.40;;;2.20;;
30048;SDS011;16879;50.852;15.602;2023-03-14T08:08:03;3.10;;;2.22;;
30048;SDS011;16879;50.852;15.602;2023-03-14T08:10:30;6.13;;;2.80;;
30048;SDS011;16879;50.852;15.602;2023-03-14T08:12:56;5.88;;;2.63;;
30048;SDS011;16879;50.852;15.602;2023-03-14T08:15:23;4.47;;;2.88;;
30048;SDS011;16879;50.852;15.602;2023-03-14T08:17:49;3.75;;;2.65;;
30048;SDS011;16879;50.852;15.602;2023-03-14T08:20:23;3.97;;;2.47;;
30048;SDS011;16879;50.852;15.602;2023-03-14T08:22:51;4.13;;;2.60;;
30048;SDS011;16879;50.852;15.602;2023-03-14T08:25:17;3.35;;;2.50;;
30048;SDS011;16879;50.852;15.602;2023-03-14T08:27:43;4.90;;;2.40;;
30048;SDS011;16879;50.852;15.602;2023-03-14T08:30:10;4.90;;;2.22;;
30048;SDS011;16879;50.852;15.602;2023-03-14T08:32:37;4.28;;;2.05;;
30048;SDS011;16879;50.852;15.602;2023-03-14T08:35:04;3.80;;;2.30;;
30048;SDS011;16879;50.852;15.602;2023-03-14T08:37:33;2.00;;;1.40;;
30048;SDS011;16879;50.852;15.602;2023-03-14T08:40:00;5.55;;;1.73;;
30048;SDS011;16879;50.852;15.602;2023-03-14T08:42:30;6.18;;;2.13;;
30048;SDS011;16879;50.852;15.602;2023-03-14T08:44:56;3.60;;;1.90;;
30048;SDS011;16879;50.852;15.602;2023-03-14T08:47:22;6.85;;;1.60;;
30048;SDS011;16879;50.852;15.602;2023-03-14T08:49:47;4.15;;;1.65;;
30048;SDS011;16879;50.852;15.602;2023-03-14T08:52:13;2.30;;;1.63;;
30048;SDS011;16879;50.852;15.602;2023-03-14T08:54:42;2.38;;;1.58;;
30048;SDS011;16879;50.852;15.602;2023-03-14T08:57:09;5.43;;;1.65;;
30048;SDS011;16879;50.852;15.602;2023-03-14T08:59:35;2.78;;;1.70;;
30048;SDS011;16879;50.852;15.602;2023-03-14T09:02:01;2.67;;;1.70;;
30048;SDS011;16879;50.852;15.602;2023-03-14T09:04:31;2.55;;;1.60;;
30048;SDS011;16879;50.852;15.602;2023-03-14T09:06:57;1.83;;;1.70;;
30048;SDS011;16879;50.852;15.602;2023-03-14T09:09:24;5.90;;;1.90;;
30048;SDS011;16879;50.852;15.602;2023-03-14T09:11:52;4.10;;;2.00;;
30048;SDS011;16879;50.852;15.602;2023-03-14T09:14:18;5.85;;;1.98;;
30048;SDS011;16879;50.852;15.602;2023-03-14T09:16:44;6.07;;;2.67;;
30048;SDS011;16879;50.852;15.602;2023-03-14T09:19:10;3.63;;;2.45;;
30048;SDS011;16879;50.852;15.602;2023-03-14T09:21:36;4.45;;;2.40;;
30048;SDS011;16879;50.852;15.602;2023-03-14T09:24:04;4.95;;;2.50;;
30048;SDS011;16879;50.852;15.602;2023-03-14T09:26:30;4.72;;;2.25;;
30048;SDS011;16879;50.852;15.602;2023-03-14T09:28:56;2.65;;;1.90;;
30048;SDS011;16879;50.852;15.602;2023-03-14T09:31:22;2.60;;;1.90;;
30048;SDS011;16879;50.852;15.602;2023-03-14T09:33:49;5.72;;;2.22;;
30048;SDS011;16879;50.852;15.602;2023-03-14T09:36:15;6.38;;;2.55;;
30048;SDS011;16879;50.852;15.602;2023-03-14T09:38:41;3.35;;;1.80;;
30048;SDS011;16879;50.852;15.602;2023-03-14T09:41:12;3.15;;;1.92;;
30048;SDS011;16879;50.852;15.602;2023-03-14T09:43:40;3.03;;;1.83;;
30048;SDS011;16879;50.852;15.602;2023-03-14T09:46:08;3.55;;;1.75;;
30048;SDS011;16879;50.852;15.602;2023-03-14T09:48:36;1.63;;;1.52;;
30048;SDS011;16879;50.852;15.602;2023-03-14T09:51:04;4.38;;;2.15;;
30048;SDS011;16879;50.852;15.602;2023-03-14T09:53:44;3.72;;;1.98;;
30048;SDS011;16879;50.852;15.602;2023-03-14T09:56:18;2.10;;;1.35;;
30048;SDS011;16879;50.852;15.602;2023-03-14T09:59:00;2.22;;;1.90;;
30048;SDS011;16879;50.852;15.602;2023-03-14T10:01:29;1.52;;;1.42;;
30048;SDS011;16879;50.852;15.602;2023-03-14T10:03:57;3.45;;;2.00;;
30048;SDS011;16879;50.852;15.602;2023-03-14T10:06:25;2.63;;;1.58;;
30048;SDS011;16879;50.852;15.602;2023-03-14T10:08:52;1.90;;;1.80;;
30048;SDS011;16879;50.852;15.602;2023-03-14T10:11:18;4.53;;;2.20;;
30048;SDS011;16879;50.852;15.602;2023-03-14T10:16:45;2.33;;;1.50;;
30048;SDS011;16879;50.852;15.602;2023-03-14T10:19:17;2.03;;;1.70;;
30048;SDS011;16879;50.852;15.602;2023-03-14T10:21:43;1.60;;;1.50;;
30048;SDS011;16879;50.852;15.602;2023-03-14T10:26:55;2.45;;;1.90;;
30048;SDS011;16879;50.852;15.602;2023-03-14T10:29:50;1.98;;;1.63;;
30048;SDS011;16879;50.852;15.602;2023-03-14T10:32:28;3.85;;;2.05;;
30048;SDS011;16879;50.852;15.602;2023-03-14T10:38:01;2.17;;;1.80;;
30048;SDS011;16879;50.852;15.602;2023-03-14T10:40:32;2.85;;;1.40;;
30048;SDS011;16879;50.852;15.602;2023-03-14T10:42:59;2.40;;;1.50;;
30048;SDS011;16879;50.852;15.602;2023-03-14T10:47:57;1.83;;;1.40;;
30048;SDS011;16879;50.852;15.602;2023-03-14T10:50:30;1.40;;;1.15;;
30048;SDS011;16879;50.852;15.602;2023-03-14T10:52:57;1.67;;;1.30;;
30048;SDS011;16879;50.852;15.602;2023-03-14T10:55:39;1.80;;;1.30;;
30048;SDS011;16879;50.852;15.602;2023-03-14T10:58:16;1.88;;;1.38;;
30048;SDS011;16879;50.852;15.602;2023-03-14T11:00:42;1.35;;;1.15;;
30048;SDS011;16879;50.852;15.602;2023-03-14T11:03:12;2.20;;;1.20;;
30048;SDS011;16879;50.852;15.602;2023-03-14T11:10:35;2.83;;;1.30;;
30048;SDS011;16879;50.852;15.602;2023-03-14T11:20:46;6.03;;;2.00;;
30048;SDS011;16879;50.852;15.602;2023-03-14T11:28:37;3.63;;;1.45;;
30048;SDS011;16879;50.852;15.602;2023-03-14T11:33:33;1.77;;;1.27;;
30048;SDS011;16879;50.852;15.602;2023-03-14T11:36:08;2.63;;;1.30;;
30048;SDS011;16879;50.852;15.602;2023-03-14T11:41:01;1.30;;;1.20;;
30048;SDS011;16879;50.852;15.602;2023-03-14T11:43:28;2.15;;;1.20;;
30048;SDS011;16879;50.852;15.602;2023-03-14T11:46:01;1.90;;;1.17;;
30048;SDS011;16879;50.852;15.602;2023-03-14T11:52:34;3.92;;;1.20;;
30048;SDS011;16879;50.852;15.602;2023-03-14T11:57:59;2.90;;;1.40;;
30048;SDS011;16879;50.852;15.602;2023-03-14T12:00:27;2.35;;;1.60;;
30048;SDS011;16879;50.852;15.602;2023-03-14T12:02:58;3.85;;;2.30;;
30048;SDS011;16879;50.852;15.602;2023-03-14T12:05:50;4.18;;;1.52;;
30048;SDS011;16879;50.852;15.602;2023-03-14T12:08:41;1.50;;;0.98;;
30048;SDS011;16879;50.852;15.602;2023-03-14T12:14:25;1.77;;;1.08;;
30048;SDS011;16879;50.852;15.602;2023-03-14T12:19:41;3.03;;;1.48;;
30048;SDS011;16879;50.852;15.602;2023-03-14T12:24:36;3.05;;;1.30;;
30048;SDS011;16879;50.852;15.602;2023-03-14T12:27:03;2.80;;;1.27;;
30048;SDS011;16879;50.852;15.602;2023-03-14T12:29:30;4.00;;;2.45;;
30048;SDS011;16879;50.852;15.602;2023-03-14T12:34:39;4.68;;;1.50;;
30048;SDS011;16879;50.852;15.602;2023-03-14T12:37:10;6.30;;;2.42;;
30048;SDS011;16879;50.852;15.602;2023-03-14T12:51:02;1.77;;;0.95;;
30048;SDS011;16879;50.852;15.602;2023-03-14T12:58:58;2.65;;;1.08;;
30048;SDS011;16879;50.852;15.602;2023-03-14T13:01:28;2.58;;;1.15;;
30048;SDS011;16879;50.852;15.602;2023-03-14T13:03:55;1.30;;;1.10;;
30048;SDS011;16879;50.852;15.602;2023-03-14T13:12:01;3.03;;;1.65;;
30048;SDS011;16879;50.852;15.602;2023-03-14T13:14:30;3.40;;;1.75;;
30048;SDS011;16879;50.852;15.602;2023-03-14T13:17:01;2.53;;;1.60;;
30048;SDS011;16879;50.852;15.602;2023-03-14T13:19:27;4.10;;;1.50;;
30048;SDS011;16879;50.852;15.602;2023-03-14T13:22:05;2.38;;;1.33;;
30048;SDS011;16879;50.852;15.602;2023-03-14T13:24:40;2.83;;;1.42;;
30048;SDS011;16879;50.852;15.602;2023-03-14T13:27:08;3.30;;;1.60;;
30048;SDS011;16879;50.852;15.602;2023-03-14T13:29:39;2.38;;;1.17;;
30048;SDS011;16879;50.852;15.602;2023-03-14T13:32:20;1.60;;;0.93;;
30048;SDS011;16879;50.852;15.602;2023-03-14T13:34:46;2.72;;;0.80;;
30048;SDS011;16879;50.852;15.602;2023-03-14T13:37:18;1.42;;;0.77;;
30048;SDS011;16879;50.852;15.602;2023-03-14T13:39:48;1.65;;;1.20;;
30048;SDS011;16879;50.852;15.602;2023-03-14T13:42:15;1.88;;;1.17;;
30048;SDS011;16879;50.852;15.602;2023-03-14T13:44:42;2.28;;;1.15;;
30048;SDS011;16879;50.852;15.602;2023-03-14T13:47:11;3.22;;;1.00;;
30048;SDS011;16879;50.852;15.602;2023-03-14T13:49:39;2.60;;;1.00;;
30048;SDS011;16879;50.852;15.602;2023-03-14T13:52:21;2.90;;;0.93;;
30048;SDS011;16879;50.852;15.602;2023-03-14T13:54:53;0.98;;;0.88;;
30048;SDS011;16879;50.852;15.602;2023-03-14T13:57:24;2.05;;;0.98;;
30048;SDS011;16879;50.852;15.602;2023-03-14T14:00:01;1.60;;;0.80;;
30048;SDS011;16879;50.852;15.602;2023-03-14T14:02:31;3.70;;;1.10;;
30048;SDS011;16879;50.852;15.602;2023-03-14T14:04:59;1.92;;;0.93;;
30048;SDS011;16879;50.852;15.602;2023-03-14T14:07:26;3.90;;;1.30;;
30048;SDS011;16879;50.852;15.602;2023-03-14T14:09:53;1.25;;;1.00;;
30048;SDS011;16879;50.852;15.602;2023-03-14T14:12:22;2.15;;;0.80;;
30048;SDS011;16879;50.852;15.602;2023-03-14T14:17:38;2.80;;;1.50;;
30048;SDS011;16879;50.852;15.602;2023-03-14T14:23:03;2.17;;;1.50;;
30048;SDS011;16879;50.852;15.602;2023-03-14T14:25:30;4.40;;;1.45;;
30048;SDS011;16879;50.852;15.602;2023-03-14T14:27:56;5.10;;;1.58;;
30048;SDS011;16879;50.852;15.602;2023-03-14T14:32:52;2.17;;;1.65;;
30048;SDS011;16879;50.852;15.602;2023-03-14T14:35:32;3.72;;;1.73;;
30048;SDS011;16879;50.852;15.602;2023-03-14T14:37:59;8.57;;;1.92;;
30048;SDS011;16879;50.852;15.602;2023-03-14T14:40:26;1.20;;;0.85;;
30048;SDS011;16879;50.852;15.602;2023-03-14T14:42:53;1.25;;;0.80;;
30048;SDS011;16879;50.852;15.602;2023-03-14T14:45:20;1.88;;;0.80;;
30048;SDS011;16879;50.852;15.602;2023-03-14T14:47:54;2.80;;;1.80;;
30048;SDS011;16879;50.852;15.602;2023-03-14T14:50:48;3.25;;;1.00;;
30048;SDS011;16879;50.852;15.602;2023-03-14T14:53:25;3.30;;;1.20;;
30048;SDS011;16879;50.852;15.602;2023-03-14T14:56:25;1.58;;;1.05;;
30048;SDS011;16879;50.852;15.602;2023-03-14T14:58:57;5.35;;;2.20;;
30048;SDS011;16879;50.852;15.602;2023-03-14T15:01:37;44.10;;;23.05;;
30048;SDS011;16879;50.852;15.602;2023-03-14T15:04:16;7.22;;;4.28;;
30048;SDS011;16879;50.852;15.602;2023-03-14T15:06:44;4.03;;;2.35;;
30048;SDS011;16879;50.852;15.602;2023-03-14T15:09:11;5.30;;;3.00;;
30048;SDS011;16879;50.852;15.602;2023-03-14T15:11:52;5.57;;;3.40;;
30048;SDS011;16879;50.852;15.602;2023-03-14T15:16:50;5.75;;;3.17;;
30048;SDS011;16879;50.852;15.602;2023-03-14T15:19:21;8.13;;;3.78;;
30048;SDS011;16879;50.852;15.602;2023-03-14T15:21:47;3.50;;;2.03;;
30048;SDS011;16879;50.852;15.602;2023-03-14T15:24:13;3.03;;;1.70;;
30048;SDS011;16879;50.852;15.602;2023-03-14T15:26:39;5.90;;;3.28;;
30048;SDS011;16879;50.852;15.602;2023-03-14T15:29:15;4.82;;;3.92;;
30048;SDS011;16879;50.852;15.602;2023-03-14T15:31:42;4.63;;;2.00;;
30048;SDS011;16879;50.852;15.602;2023-03-14T15:34:10;6.70;;;4.00;;
30048;SDS011;16879;50.852;15.602;2023-03-14T15:36:36;5.22;;;2.22;;
30048;SDS011;16879;50.852;15.602;2023-03-14T15:39:05;5.97;;;3.80;;
30048;SDS011;16879;50.852;15.602;2023-03-14T15:41:32;4.32;;;3.53;;
30048;SDS011;16879;50.852;15.602;2023-03-14T15:43:58;5.07;;;2.92;;
30048;SDS011;16879;50.852;15.602;2023-03-14T15:46:24;11.60;;;2.58;;
30048;SDS011;16879;50.852;15.602;2023-03-14T15:48:51;6.15;;;3.42;;
30048;SDS011;16879;50.852;15.602;2023-03-14T15:51:19;3.40;;;1.38;;
30048;SDS011;16879;50.852;15.602;2023-03-14T15:53:45;7.00;;;3.78;;
30048;SDS011;16879;50.852;15.602;2023-03-14T15:56:13;14.52;;;8.30;;
30048;SDS011;16879;50.852;15.602;2023-03-14T15:58:40;10.80;;;5.32;;
30048;SDS011;16879;50.852;15.602;2023-03-14T16:01:21;23.60;;;13.95;;
30048;SDS011;16879;50.852;15.602;2023-03-14T16:03:48;10.63;;;5.50;;
30048;SDS011;16879;50.852;15.602;2023-03-14T16:06:16;31.48;;;17.90;;
30048;SDS011;16879;50.852;15.602;2023-03-14T16:08:42;29.27;;;17.98;;